createdAt,value
2019-06-07T00:02:58.349Z,99.90
2019-06-07T00:07:44.263Z,99.90
2019-06-07T00:12:30.044Z,99.90
2019-06-07T00:17:18.190Z,99.90
2019-06-07T00:22:31.527Z,99.90
2019-06-07T00:26:58.364Z,99.90
2019-06-07T00:31:38.323Z,99.90
2019-06-07T00:36:24.112Z,99.90
2019-06-07T00:41:12.527Z,99.90
2019-06-07T00:45:58.714Z,99.90
2019-06-07T00:50:45.288Z,99.90
2019-06-07T00:55:31.136Z,99.90
2019-06-07T01:00:22.341Z,99.90
2019-06-07T01:05:07.137Z,99.90
2019-06-07T01:09:52.944Z,99.90
2019-06-07T01:14:58.180Z,99.90
2019-06-07T01:19:44.026Z,99.90
2019-06-07T01:24:30.608Z,99.90
2019-06-07T01:29:18.289Z,99.90
2019-06-07T01:34:05.553Z,99.90
2019-06-07T01:38:51.386Z,99.90
2019-06-07T01:43:37.127Z,99.90
2019-06-07T01:48:26.051Z,99.90
2019-06-07T01:53:10.365Z,99.90
2019-06-07T01:57:56.269Z,99.90
2019-06-07T02:02:42.381Z,99.90
2019-06-07T02:07:32.896Z,99.90
2019-06-07T02:12:25.537Z,99.90
2019-06-07T02:17:04.049Z,99.90
2019-06-07T02:21:49.996Z,99.90
2019-06-07T02:26:35.806Z,99.90
2019-06-07T02:31:24.389Z,99.90
2019-06-07T02:36:09.254Z,99.90
2019-06-07T02:40:55.124Z,99.90
2019-06-07T02:45:43.571Z,99.90
2019-06-07T02:50:31.517Z,99.90
2019-06-07T02:55:16.551Z,99.90
2019-06-07T03:00:17.034Z,99.90
2019-06-07T03:04:50.078Z,99.90
2019-06-07T03:09:37.145Z,99.90
2019-06-07T03:14:26.008Z,99.90
2019-06-07T03:19:34.263Z,99.90
2019-06-07T03:24:20.184Z,99.90
2019-06-07T03:29:06.478Z,99.90
2019-06-07T03:33:52.461Z,99.90
2019-06-07T03:38:40.027Z,99.90
2019-06-07T03:43:27.333Z,99.90
2019-06-07T03:48:13.275Z,99.90
2019-06-07T03:52:59.177Z,99.90
2019-06-07T03:58:29.945Z,99.90
2019-06-07T04:02:38.585Z,99.90
2019-06-07T04:07:22.875Z,99.90
2019-06-07T04:12:10.289Z,99.90
2019-06-07T04:16:56.592Z,99.90
2019-06-07T04:21:43.092Z,99.90
2019-06-07T04:26:32.428Z,99.90
2019-06-07T04:31:20.259Z,99.90
2019-06-07T04:36:06.518Z,99.90
2019-06-07T04:40:53.435Z,99.90
2019-06-07T04:45:45.758Z,99.90
2019-06-07T04:50:30.307Z,99.90
2019-06-07T04:55:15.723Z,99.90
2019-06-07T05:00:12.671Z,99.90
2019-06-07T05:04:51.220Z,99.90
2019-06-07T05:09:42.953Z,99.90
2019-06-07T05:14:26.384Z,99.90
2019-06-07T05:19:12.330Z,99.90
2019-06-07T05:24:07.534Z,99.90
2019-06-07T05:28:48.667Z,99.90
2019-06-07T05:33:36.606Z,99.90
2019-06-07T05:38:21.995Z,99.90
2019-06-07T05:43:08.638Z,99.90
2019-06-07T05:47:54.916Z,99.90
2019-06-07T05:52:46.726Z,99.90
2019-06-07T05:57:28.283Z,99.90
2019-06-07T06:02:38.911Z,99.90
2019-06-07T06:07:20.454Z,99.90
2019-06-07T06:12:06.448Z,99.90
2019-06-07T06:16:52.252Z,99.90
2019-06-07T06:21:38.675Z,99.90
2019-06-07T06:26:24.457Z,99.90
2019-06-07T06:31:10.308Z,99.90
2019-06-07T06:35:56.005Z,99.90
2019-06-07T06:40:45.057Z,99.90
2019-06-07T06:45:29.384Z,99.90
2019-06-07T06:50:16.067Z,99.90
2019-06-07T06:55:02.537Z,99.90
2019-06-07T06:59:52.061Z,99.90
2019-06-07T07:04:36.507Z,99.90
2019-06-07T07:09:23.297Z,99.90
2019-06-07T07:14:09.181Z,99.90
2019-06-07T07:18:55.024Z,99.90
2019-06-07T07:24:01.554Z,99.90
2019-06-07T07:28:28.321Z,99.90
2019-06-07T07:33:14.247Z,99.90
2019-06-07T07:38:00.250Z,99.90
2019-06-07T07:42:47.553Z,99.90
2019-06-07T07:47:33.712Z,99.90
2019-06-07T07:52:19.480Z,99.90
2019-06-07T07:57:05.189Z,99.90
2019-06-07T08:01:53.890Z,99.90
2019-06-07T08:06:38.358Z,99.90
2019-06-07T08:11:24.328Z,99.90
2019-06-07T08:16:16.205Z,99.90
2019-06-07T08:21:15.055Z,99.90
2019-06-07T08:25:45.210Z,99.90
2019-06-07T08:30:50.540Z,99.90
2019-06-07T08:36:03.124Z,99.90
2019-06-07T08:40:07.827Z,99.90
2019-06-07T08:44:54.332Z,99.90
2019-06-07T08:49:41.834Z,99.90
2019-06-07T08:54:27.634Z,99.90
2019-06-07T08:59:13.565Z,99.90
2019-06-07T09:04:02.612Z,99.90
2019-06-07T09:08:49.783Z,99.90
2019-06-07T09:13:35.597Z,99.90
2019-06-07T09:18:41.348Z,99.90
2019-06-07T09:23:16.773Z,99.90
2019-06-07T09:28:00.605Z,99.90
2019-06-07T09:32:46.683Z,99.90
2019-06-07T09:38:04.366Z,99.90
2019-06-07T09:42:20.777Z,99.90
2019-06-07T09:47:29.870Z,99.90
2019-06-07T09:51:57.845Z,99.90
2019-06-07T09:56:46.347Z,99.90
2019-06-07T10:01:42.172Z,99.90
2019-06-07T10:06:23.534Z,99.90
2019-06-07T10:11:09.639Z,99.90
2019-06-07T10:15:56.033Z,99.90
2019-06-07T10:20:42.486Z,99.90
2019-06-07T10:25:30.335Z,99.90
2019-06-07T10:30:17.869Z,99.90
2019-06-07T10:35:05.057Z,99.90
2019-06-07T10:39:52.135Z,99.90
2019-06-07T10:44:38.404Z,99.90
2019-06-07T10:49:26.497Z,99.90
2019-06-07T10:54:24.771Z,99.90
2019-06-07T10:59:03.131Z,99.90
2019-06-07T11:03:49.207Z,99.90
2019-06-07T11:08:37.833Z,99.90
2019-06-07T11:13:25.331Z,99.90
2019-06-07T11:18:14.281Z,99.80
2019-06-07T11:23:00.437Z,99.90
2019-06-07T11:27:46.293Z,99.90
2019-06-07T11:32:32.967Z,99.90
2019-06-07T11:37:19.359Z,99.90
2019-06-07T11:42:05.681Z,96.60
2019-06-07T11:46:51.721Z,95.80
2019-06-07T11:51:37.712Z,98.90
2019-06-07T11:56:23.655Z,87.20
2019-06-07T12:01:09.766Z,90.20
2019-06-07T12:05:57.107Z,45.80
2019-06-07T12:10:49.074Z,35.00
2019-06-07T12:15:38.427Z,35.30
2019-06-07T12:20:26.197Z,35.30
2019-06-07T12:25:20.677Z,33.50
2019-06-07T12:30:11.355Z,33.00
2019-06-07T12:34:53.442Z,35.00
2019-06-07T12:39:40.121Z,34.00
2019-06-07T12:44:27.473Z,33.50
2019-06-07T12:49:14.986Z,32.60
2019-06-07T12:54:02.221Z,33.20
2019-06-07T12:58:48.267Z,32.60
2019-06-07T13:03:35.503Z,33.00
2019-06-07T13:08:23.928Z,32.20
2019-06-07T13:13:11.732Z,30.70
2019-06-07T13:17:58.280Z,31.40
2019-06-07T13:22:44.311Z,32.30
2019-06-07T13:27:33.454Z,32.20
2019-06-07T13:32:19.526Z,32.40
2019-06-07T13:37:05.645Z,32.00
2019-06-07T13:41:53.363Z,31.10
2019-06-07T13:46:40.997Z,32.30
2019-06-07T13:51:28.843Z,31.70
2019-06-07T13:56:14.913Z,31.60
2019-06-07T14:01:01.539Z,30.20
2019-06-07T14:05:49.475Z,30.70
2019-06-07T14:10:35.466Z,30.70
2019-06-07T14:15:24.344Z,29.60
2019-06-07T14:20:12.617Z,30.80
2019-06-07T14:24:58.656Z,28.70
2019-06-07T14:29:44.469Z,29.10
2019-06-07T14:34:32.667Z,28.50
2019-06-07T14:39:19.516Z,28.70
2019-06-07T14:44:06.512Z,29.60
2019-06-07T14:48:53.163Z,29.60
2019-06-07T14:53:39.223Z,29.30
2019-06-07T14:58:44.715Z,30.10
2019-06-07T15:03:32.751Z,32.00
2019-06-07T15:08:19.936Z,31.70
2019-06-07T15:13:10.100Z,31.60
2019-06-07T15:17:58.953Z,31.10
2019-06-07T15:22:50.144Z,32.90
2019-06-07T15:27:39.954Z,31.90
2019-06-07T15:32:28.086Z,33.40
2019-06-07T15:37:15.207Z,32.40
2019-06-07T15:42:02.564Z,32.30
2019-06-07T15:46:49.966Z,33.30
2019-06-07T15:51:38.728Z,33.40
2019-06-07T15:56:27.375Z,33.80
2019-06-07T16:01:14.336Z,34.30
2019-06-07T16:06:02.350Z,34.70
2019-06-07T16:10:49.198Z,34.30
2019-06-07T16:15:39.039Z,34.30
2019-06-07T16:20:26.387Z,35.20
2019-06-07T16:25:13.544Z,35.20
2019-06-07T16:30:08.802Z,35.70
2019-06-07T16:34:49.232Z,35.80
2019-06-07T16:39:38.092Z,35.80
2019-06-07T16:44:25.008Z,37.20
2019-06-07T16:49:12.040Z,37.50
2019-06-07T16:53:59.913Z,37.90
2019-06-07T16:58:48.707Z,38.30
2019-06-07T17:03:37.196Z,40.10
2019-06-07T17:08:25.642Z,39.70
2019-06-07T17:13:13.403Z,39.50
2019-06-07T17:18:00.449Z,41.70
2019-06-07T17:22:47.449Z,40.90
2019-06-07T17:27:34.049Z,40.70
2019-06-07T17:32:20.650Z,42.20
2019-06-07T17:37:08.713Z,41.40
2019-06-07T17:42:02.050Z,42.30
2019-06-07T17:46:47.614Z,42.80
2019-06-07T17:51:34.562Z,43.50
2019-06-07T17:56:21.179Z,41.80
2019-06-07T18:01:08.586Z,41.70
2019-06-07T18:05:56.283Z,42.00
2019-06-07T18:10:45.683Z,41.80
2019-06-07T18:15:41.110Z,42.00
2019-06-07T18:20:30.026Z,42.30
2019-06-07T18:25:17.045Z,42.90
2019-06-07T18:30:11.464Z,42.20
2019-06-07T18:34:52.967Z,43.10
2019-06-07T18:39:41.032Z,43.80
2019-06-07T18:44:29.390Z,44.20
2019-06-07T18:49:17.228Z,44.20
2019-06-07T18:54:06.414Z,44.80
2019-06-07T18:58:53.174Z,44.50
2019-06-07T19:03:42.223Z,44.30
2019-06-07T19:08:31.313Z,45.30
2019-06-07T19:13:18.534Z,45.40
2019-06-07T19:18:06.470Z,46.20
2019-06-07T19:22:54.326Z,46.80
2019-06-07T19:27:43.478Z,59.70
2019-06-07T19:32:30.251Z,63.20
2019-06-07T19:37:17.182Z,64.60
2019-06-07T19:42:03.585Z,66.50
2019-06-07T19:46:49.956Z,67.40
2019-06-07T19:51:36.109Z,66.80
2019-06-07T19:56:22.394Z,67.60
2019-06-07T20:01:08.655Z,70.00
2019-06-07T20:05:56.077Z,67.10
2019-06-07T20:10:42.598Z,67.20
2019-06-07T20:15:29.751Z,68.80
2019-06-07T20:20:17.759Z,70.00
2019-06-07T20:25:05.059Z,71.20
2019-06-07T20:29:51.655Z,71.70
2019-06-07T20:34:38.256Z,72.60
2019-06-07T20:39:24.575Z,73.20
2019-06-07T20:44:10.720Z,73.40
2019-06-07T20:48:58.080Z,73.90
2019-06-07T20:53:44.376Z,74.00
2019-06-07T20:58:34.522Z,75.70
2019-06-07T21:03:21.003Z,77.20
2019-06-07T21:08:09.791Z,77.80
2019-06-07T21:12:56.303Z,80.00
2019-06-07T21:17:42.793Z,80.90
2019-06-07T21:22:31.028Z,83.70
2019-06-07T21:27:17.847Z,86.00
2019-06-07T21:32:07.426Z,87.60
2019-06-07T21:36:53.796Z,89.50
2019-06-07T21:41:39.887Z,90.70
2019-06-07T21:46:28.459Z,91.60
2019-06-07T21:51:13.747Z,92.20
2019-06-07T21:55:59.585Z,93.70
2019-06-07T22:01:16.580Z,94.50
2019-06-07T22:06:03.353Z,95.40
2019-06-07T22:10:50.333Z,96.20
2019-06-07T22:15:37.533Z,96.90
2019-06-07T22:20:23.651Z,97.10
2019-06-07T22:25:11.057Z,97.10
2019-06-07T22:29:57.234Z,97.30
2019-06-07T22:34:43.049Z,97.60
2019-06-07T22:39:28.892Z,97.90
2019-06-07T22:44:14.954Z,98.20
2019-06-07T22:49:00.956Z,97.70
2019-06-07T22:53:46.681Z,98.20
2019-06-07T22:58:33.440Z,98.10
2019-06-07T23:03:19.442Z,97.80
2019-06-07T23:08:05.497Z,98.00
2019-06-07T23:12:52.232Z,98.00
2019-06-07T23:17:38.081Z,98.40
2019-06-07T23:22:23.877Z,97.90
2019-06-07T23:27:10.953Z,98.10
2019-06-07T23:31:57.078Z,98.40
2019-06-07T23:36:42.896Z,98.00
2019-06-07T23:41:28.784Z,98.40
2019-06-07T23:46:15.318Z,98.60
2019-06-07T23:51:01.102Z,98.10
2019-06-07T23:55:46.902Z,98.70
